Time;durP1;ratioP1;P1;durP2;ratioP2;P2;SDS_P1;SDS_P2;PMS_P1;PMS_P2;Temp;Humidity;BMP_temperature;BMP_pressure;BME280_temperature;BME280_humidity;BME280_pressure;Samples;Min_cycle;Max_cycle;Signal;HPM_P1;HPM_P2
2022/11/07 00:01:15;;;;;;;7.63;6.37;;;;;;;12.86;68.14;99893.13;4946336;28;119547;-73
2022/11/07 00:03:44;;;;;;;8.15;6.47;;;;;;;12.86;67.68;99886.84;4946105;28;119439;-73
2022/11/07 00:06:10;;;;;;;11.13;6.57;;;;;;;12.90;67.99;99890.91;4949336;28;119874;-72
2022/11/07 00:08:36;;;;;;;9.48;6.90;;;;;;;12.94;68.08;99887.19;4947400;28;119798;-74
2022/11/07 00:11:03;;;;;;;9.90;7.40;;;;;;;12.93;67.88;99889.16;4934807;28;120053;-72
2022/11/07 00:13:29;;;;;;;8.60;6.93;;;;;;;12.97;68.16;99877.94;4946270;28;119924;-72
2022/11/07 00:16:00;;;;;;;10.95;7.80;;;;;;;12.98;68.45;99890.47;4945046;28;119676;-73
2022/11/07 00:18:26;;;;;;;10.10;7.85;;;;;;;12.97;68.33;99884.22;4945384;28;119818;-73
2022/11/07 00:20:51;;;;;;;10.65;8.38;;;;;;;12.97;67.83;99891.72;4954570;28;119266;-72
2022/11/07 00:23:17;;;;;;;8.98;8.05;;;;;;;12.97;67.83;99897.22;4947022;28;119339;-73
2022/11/07 00:25:43;;;;;;;9.90;8.50;;;;;;;12.89;67.45;99872.88;4945662;28;119842;-72
2022/11/07 00:28:09;;;;;;;11.80;9.57;;;;;;;13.02;68.46;99880.03;4948954;28;119351;-72
2022/11/07 00:30:34;;;;;;;10.85;9.27;;;;;;;13.02;67.96;99877.25;4941688;28;119876;-73
2022/11/07 00:33:00;;;;;;;15.23;9.80;;;;;;;13.04;68.40;99883.03;4945585;28;119526;-72
2022/11/07 00:35:25;;;;;;;13.13;10.07;;;;;;;13.05;67.81;99881.78;4946410;28;119886;-73
2022/11/07 00:37:55;;;;;;;15.23;10.57;;;;;;;13.07;68.10;99876.56;4945950;28;120196;-73
2022/11/07 00:40:21;;;;;;;11.27;9.85;;;;;;;13.07;67.40;99871.06;4942186;28;119535;-72
2022/11/07 00:42:47;;;;;;;14.03;10.23;;;;;;;13.05;67.74;99868.78;4946745;28;119915;-73
2022/11/07 00:45:12;;;;;;;13.67;10.30;;;;;;;13.06;68.12;99869.53;4951681;28;120376;-73
2022/11/07 00:47:39;;;;;;;11.80;9.53;;;;;;;13.11;67.72;99874.34;4946309;28;119801;-73
2022/11/07 00:50:05;;;;;;;14.02;9.68;;;;;;;13.11;67.75;99869.59;4949208;28;119715;-73
2022/11/07 00:52:31;;;;;;;13.30;10.20;;;;;;;13.14;67.98;99862.34;4937762;28;119457;-72
2022/11/07 00:55:13;;;;;;;13.20;9.90;;;;;;;13.13;67.69;99869.84;4944651;28;119809;-73
2022/11/07 00:57:39;;;;;;;12.43;10.15;;;;;;;13.13;67.38;99861.59;4951790;28;121094;-72
2022/11/07 01:00:05;;;;;;;12.98;10.27;;;;;;;13.14;67.62;99867.84;4949205;28;119445;-73
2022/11/07 01:02:31;;;;;;;12.70;10.03;;;;;;;13.14;68.02;99868.59;4943226;28;119331;-72
2022/11/07 01:05:12;;;;;;;13.20;10.20;;;;;;;13.16;67.79;99873.63;4943970;28;119915;-72
2022/11/07 01:07:38;;;;;;;12.70;10.80;;;;;;;13.16;67.74;99862.59;4944907;28;119401;-72
2022/11/07 01:10:05;;;;;;;14.38;11.50;;;;;;;13.11;67.94;99863.31;4944012;28;120375;-72
2022/11/07 01:12:32;;;;;;;14.20;11.98;;;;;;;13.11;67.81;99861.31;4955224;28;120029;-73
2022/11/07 01:15:00;;;;;;;13.82;12.07;;;;;;;13.15;68.31;99864.59;4951342;28;119918;-73
2022/11/07 01:17:26;;;;;;;15.13;11.95;;;;;;;13.13;68.16;99864.34;4944469;28;119888;-73
2022/11/07 01:19:52;;;;;;;15.20;12.40;;;;;;;13.14;68.11;99859.59;4945205;28;119560;-73
2022/11/07 01:22:17;;;;;;;16.20;12.90;;;;;;;13.16;68.47;99866.13;4946955;28;119796;-73
2022/11/07 01:24:43;;;;;;;15.65;12.63;;;;;;;13.19;68.07;99864.41;4945176;28;119896;-73
2022/11/07 01:27:09;;;;;;;15.88;13.43;;;;;;;13.21;68.00;99870.19;4939215;28;119825;-73
2022/11/07 01:29:35;;;;;;;16.25;13.52;;;;;;;13.21;68.48;99853.66;4951726;28;119347;-73
2022/11/07 01:32:00;;;;;;;15.88;13.00;;;;;;;13.24;68.22;99858.19;4940885;28;120771;-72
2022/11/07 01:34:28;;;;;;;17.38;13.52;;;;;;;13.25;68.71;99854.22;4948584;28;119504;-72
2022/11/07 01:36:54;;;;;;;17.13;14.13;;;;;;;13.28;68.45;99858.75;4945212;28;120454;-73
2022/11/07 01:39:19;;;;;;;15.30;12.83;;;;;;;13.34;68.48;99867.06;4941868;28;119669;-73
2022/11/07 01:41:46;;;;;;;20.58;13.70;;;;;;;13.32;68.46;99862.03;4944570;28;119705;-72
2022/11/07 01:44:12;;;;;;;17.70;13.37;;;;;;;13.36;67.98;99864.56;4948081;28;119709;-72
2022/11/07 01:46:42;;;;;;;16.83;14.07;;;;;;;13.37;68.20;99872.34;4949271;28;119653;-72
2022/11/07 01:49:31;;;;;;;17.77;14.20;;;;;;;13.47;68.60;99864.63;4946516;28;119892;-72
2022/11/07 01:52:15;;;;;;;20.02;14.30;;;;;;;13.52;68.41;99872.19;4945308;28;120098;-72
2022/11/07 01:54:52;;;;;;;17.75;13.95;;;;;;;13.55;68.42;99865.72;4944583;28;119797;-72
2022/11/07 01:57:26;;;;;;;19.15;14.10;;;;;;;13.56;67.91;99864.47;4952849;28;120130;-73
2022/11/07 01:59:56;;;;;;;18.63;13.40;;;;;;;13.62;67.29;99861.75;4948794;28;119773;-73
2022/11/07 02:02:25;;;;;;;17.77;13.75;;;;;;;13.57;68.16;99845.94;4946865;28;119776;-73
2022/11/07 02:04:51;;;;;;;17.00;13.57;;;;;;;13.69;68.28;99853.78;4947712;28;120602;-73
2022/11/07 02:07:20;;;;;;;18.33;13.80;;;;;;;13.75;67.85;99856.59;4946987;28;120008;-73
2022/11/07 02:09:46;;;;;;;18.48;14.18;;;;;;;13.77;67.66;99852.09;4948178;28;119669;-72
2022/11/07 02:12:13;;;;;;;21.00;14.05;;;;;;;13.82;68.12;99854.13;4946439;28;120238;-73
2022/11/07 02:14:41;;;;;;;20.92;13.95;;;;;;;13.85;67.85;99851.63;4945383;28;119743;-72
2022/11/07 02:17:08;;;;;;;17.77;13.77;;;;;;;13.87;68.08;99855.38;4950103;28;119769;-72
2022/11/07 02:19:37;;;;;;;18.00;12.47;;;;;;;13.90;67.94;99848.13;4956955;28;119414;-73
2022/11/07 02:22:22;;;;;;;17.27;12.80;;;;;;;13.93;67.83;99850.66;4947788;28;119982;-73
2022/11/07 02:24:52;;;;;;;21.20;13.10;;;;;;;13.97;68.07;99851.19;4946766;28;120081;-73
2022/11/07 02:27:21;;;;;;;18.05;12.43;;;;;;;14.03;68.33;99840.19;4932397;28;120375;-74
2022/11/07 02:29:53;;;;;;;19.33;11.90;;;;;;;14.10;67.96;99851.50;4944781;28;119988;-73
2022/11/07 02:32:19;;;;;;;16.63;11.75;;;;;;;14.13;68.53;99852.50;4946948;28;121827;-73
2022/11/07 02:34:53;;;;;;;19.33;11.82;;;;;;;14.18;68.59;99853.78;4947460;28;120005;-73
2022/11/07 02:37:25;;;;;;;18.33;11.55;;;;;;;14.20;67.89;99851.31;4962146;28;119642;-73
2022/11/07 02:39:51;;;;;;;18.57;11.87;;;;;;;14.24;68.28;99851.81;4951339;28;119846;-72
2022/11/07 02:42:17;;;;;;;20.80;11.70;;;;;;;14.26;68.28;99849.31;4951435;28;119587;-73
2022/11/07 02:44:49;;;;;;;21.38;10.90;;;;;;;14.28;68.34;99852.31;4954364;28;121161;-72
2022/11/07 02:47:15;;;;;;;20.08;12.32;;;;;;;14.32;68.39;99852.84;4935579;28;119520;-73
2022/11/07 02:49:40;;;;;;;18.90;12.13;;;;;;;14.39;68.48;99849.59;4949114;28;119640;-73
2022/11/07 02:52:06;;;;;;;18.58;12.07;;;;;;;14.42;68.96;99862.41;4946888;28;119896;-73
2022/11/07 02:54:32;;;;;;;25.67;12.20;;;;;;;14.42;68.92;99845.84;4946667;28;120274;-73
2022/11/07 02:56:58;;;;;;;21.20;12.30;;;;;;;14.41;68.98;99856.13;4929137;28;120403;-72
2022/11/07 02:59:23;;;;;;;22.53;11.57;;;;;;;14.45;69.36;99850.41;4947142;28;119898;-72
2022/11/07 03:01:49;;;;;;;21.20;12.40;;;;;;;14.47;68.63;99855.44;4939791;28;119345;-73
2022/11/07 03:04:15;;;;;;;20.77;12.53;;;;;;;14.53;68.81;99856.97;4930172;28;120221;-73
2022/11/07 03:06:40;;;;;;;17.33;11.67;;;;;;;14.56;68.80;99849.69;4946697;28;119877;-73
2022/11/07 03:09:06;;;;;;;19.17;11.67;;;;;;;14.57;68.85;99851.94;4947136;28;119792;-73
2022/11/07 03:11:32;;;;;;;19.20;10.80;;;;;;;14.58;68.61;99847.94;4947429;28;120189;-73
2022/11/07 03:13:57;;;;;;;32.03;11.20;;;;;;;14.53;68.45;99840.41;4957851;28;119819;-73
2022/11/07 03:16:23;;;;;;;18.10;10.93;;;;;;;14.56;68.83;99850.44;4946591;28;119917;-72
2022/11/07 03:18:48;;;;;;;21.20;11.05;;;;;;;14.58;68.68;99841.66;4945666;28;120039;-73
2022/11/07 03:21:14;;;;;;;18.02;10.13;;;;;;;14.61;68.50;99846.19;4940715;28;119727;-72
2022/11/07 03:23:40;;;;;;;18.60;10.98;;;;;;;14.60;68.95;99842.69;4951781;28;120182;-73
2022/11/07 03:26:06;;;;;;;18.90;10.60;;;;;;;14.62;68.91;99847.69;4930456;28;119717;-74
2022/11/07 03:28:34;;;;;;;18.33;10.50;;;;;;;14.64;68.50;99843.19;4944841;28;119605;-73
2022/11/07 03:31:02;;;;;;;17.85;9.82;;;;;;;14.65;68.51;99846.69;4947941;28;120167;-72
2022/11/07 03:33:29;;;;;;;17.98;9.57;;;;;;;14.64;68.60;99851.47;4956143;28;119641;-73
2022/11/07 03:35:54;;;;;;;19.35;9.80;;;;;;;14.67;68.71;99860.78;4947575;28;119904;-72
2022/11/07 03:38:20;;;;;;;19.77;9.88;;;;;;;14.65;68.53;99850.19;4942641;28;119631;-73
2022/11/07 03:40:46;;;;;;;17.48;9.20;;;;;;;14.67;68.44;99850.50;4946088;28;120127;-72
2022/11/07 03:43:11;;;;;;;19.88;9.38;;;;;;;14.67;68.54;99861.53;4943039;28;119638;-72
2022/11/07 03:45:37;;;;;;;17.65;9.07;;;;;;;14.69;68.31;99853.50;4934154;28;119940;-73
2022/11/07 03:48:03;;;;;;;18.73;9.02;;;;;;;14.72;68.08;99852.50;4936269;28;119440;-73
2022/11/07 03:50:28;;;;;;;15.52;8.65;;;;;;;14.75;68.51;99848.00;4925089;28;119933;-74
2022/11/07 03:52:54;;;;;;;15.70;9.10;;;;;;;14.79;68.49;99853.25;4941264;28;119708;-74
2022/11/07 03:55:20;;;;;;;18.70;8.88;;;;;;;14.79;68.27;99851.25;4946521;28;119500;-73
2022/11/07 03:57:46;;;;;;;15.48;8.73;;;;;;;14.82;68.14;99857.78;4948907;28;120451;-73
2022/11/07 04:00:13;;;;;;;18.85;8.90;;;;;;;14.83;68.27;99851.00;4928322;28;119919;-72
2022/11/07 04:02:39;;;;;;;21.10;9.57;;;;;;;14.83;68.79;99851.00;4945037;28;119891;-73
2022/11/07 04:05:05;;;;;;;22.08;9.48;;;;;;;14.84;68.44;99838.72;4942670;28;120300;-73
2022/11/07 04:07:31;;;;;;;21.90;8.80;;;;;;;14.84;68.81;99841.47;4949101;28;119451;-73
2022/11/07 04:09:57;;;;;;;19.90;8.88;;;;;;;14.87;68.71;99851.50;4943237;28;119973;-73
2022/11/07 04:17:54;;;;;;;21.48;9.45;;;;;;;14.82;69.34;99852.25;4920306;28;120161;-73
2022/11/07 04:20:20;;;;;;;21.53;10.00;;;;;;;14.78;69.28;99844.22;4944267;28;119964;-72
2022/11/07 04:22:46;;;;;;;23.48;10.05;;;;;;;14.77;69.18;99850.25;4944045;28;121161;-72
2022/11/07 04:25:12;;;;;;;25.52;10.35;;;;;;;14.72;69.62;99846.97;4938792;28;122184;-73
2022/11/07 04:27:45;;;;;;;23.80;9.80;;;;;;;14.72;69.27;99846.97;4946053;28;120285;-72
2022/11/07 04:30:29;;;;;;;21.90;10.27;;;;;;;14.74;69.54;99854.75;4938951;28;119901;-73
2022/11/07 04:33:10;;;;;;;21.27;10.02;;;;;;;14.72;69.54;99851.75;4945288;28;119557;-73
2022/11/07 04:35:36;;;;;;;20.53;9.50;;;;;;;14.66;69.38;99865.50;4925021;28;120148;-72
2022/11/07 04:38:01;;;;;;;23.30;9.77;;;;;;;14.66;69.64;99871.03;4944199;28;119845;-73
2022/11/07 04:40:36;;;;;;;19.58;8.98;;;;;;;14.69;69.61;99877.59;4931321;28;119896;-73
2022/11/07 04:43:07;;;;;;;19.40;8.37;;;;;;;14.70;69.99;99881.84;4924729;28;122644;-73
2022/11/07 04:45:37;;;;;;;18.23;7.90;;;;;;;14.73;69.53;99875.34;4943405;28;121530;-72
2022/11/07 04:48:04;;;;;;;17.35;7.35;;;;;;;14.70;69.59;99887.38;4940193;28;119765;-73
2022/11/07 04:50:30;;;;;;;14.55;7.45;;;;;;;14.73;70.04;99897.41;4948393;28;119877;-73
2022/11/07 04:52:55;;;;;;;19.60;7.33;;;;;;;14.70;70.19;99888.13;4943049;28;120156;-73
2022/11/07 04:55:25;;;;;;;16.77;7.57;;;;;;;14.79;70.09;99889.16;4943822;28;120125;-73
2022/11/07 04:57:51;;;;;;;14.65;7.25;;;;;;;14.82;70.32;99905.47;4945049;28;120130;-73
2022/11/07 05:00:18;;;;;;;19.60;8.52;;;;;;;14.83;70.48;99895.19;4945209;28;119821;-73
2022/11/07 05:02:44;;;;;;;17.83;8.80;;;;;;;14.83;70.33;99895.94;4927123;28;120313;-72
2022/11/07 05:05:11;;;;;;;23.70;9.75;;;;;;;14.90;70.01;99903.72;4945269;28;120095;-73
2022/11/07 05:07:37;;;;;;;24.63;10.05;;;;;;;14.92;69.97;99915.03;4943334;28;120223;-74
2022/11/07 05:10:04;;;;;;;24.73;10.60;;;;;;;14.96;70.15;99923.09;4942975;28;120082;-73
2022/11/07 05:12:29;;;;;;;24.13;9.90;;;;;;;14.94;70.35;99912.53;4943963;28;120070;-73
2022/11/07 05:14:55;;;;;;;25.98;9.77;;;;;;;14.93;70.58;99893.72;4922580;28;120031;-72
2022/11/07 05:17:21;;;;;;;29.40;10.32;;;;;;;14.90;70.37;99906.47;4943813;28;120318;-73
2022/11/07 05:19:47;;;;;;;32.30;11.30;;;;;;;14.90;70.58;99916.78;4946627;28;120088;-73
2022/11/07 05:24:56;;;;;;;31.53;11.90;;;;;;;14.84;71.33;99874.59;4947826;28;120406;-73
2022/11/07 05:27:23;;;;;;;31.37;12.37;;;;;;;14.83;71.52;99903.47;4947271;28;120192;-72
2022/11/07 05:29:48;;;;;;;28.73;12.60;;;;;;;14.82;71.31;99910.22;4943231;28;120021;-73
2022/11/07 05:32:14;;;;;;;31.30;12.20;;;;;;;14.77;71.58;99903.44;4946888;28;119582;-72
2022/11/07 05:34:40;;;;;;;28.05;12.60;;;;;;;14.77;71.83;99924.78;4952480;28;119836;-73
2022/11/07 05:37:10;;;;;;;28.00;12.05;;;;;;;14.77;72.23;99917.25;4942889;28;120548;-74
2022/11/07 05:39:36;;;;;;;29.17;11.43;;;;;;;14.78;71.70;99926.28;4948179;28;120138;-73
2022/11/07 05:42:03;;;;;;;33.50;12.33;;;;;;;14.80;72.04;99926.53;4948139;28;119951;-75
2022/11/07 05:44:29;;;;;;;33.03;13.52;;;;;;;14.82;72.04;99930.31;4946258;28;119610;-74
2022/11/07 05:46:56;;;;;;;32.22;12.73;;;;;;;14.85;71.75;99932.06;4944073;28;119963;-73
2022/11/07 05:49:41;;;;;;;37.05;13.88;;;;;;;14.85;71.87;99931.31;4947703;28;120265;-73
2022/11/07 05:52:06;;;;;;;36.07;14.13;;;;;;;14.91;71.80;99929.34;4928818;28;119562;-74
2022/11/07 05:54:32;;;;;;;33.60;13.03;;;;;;;14.94;71.75;99928.34;4945952;28;120170;-73
2022/11/07 05:57:00;;;;;;;36.97;13.27;;;;;;;14.92;71.87;99937.13;4950364;28;120108;-73
2022/11/07 05:59:26;;;;;;;38.73;13.20;;;;;;;14.96;71.90;99945.16;4947545;28;119836;-73
2022/11/07 06:01:52;;;;;;;37.93;12.57;;;;;;;15.01;71.88;99947.19;4948149;28;119972;-72
2022/11/07 06:04:18;;;;;;;36.43;12.90;;;;;;;15.05;71.93;99931.13;4945437;28;119999;-72
2022/11/07 06:06:43;;;;;;;36.95;13.25;;;;;;;15.08;71.50;99929.38;4946512;28;120597;-73
2022/11/07 06:09:09;;;;;;;34.78;12.88;;;;;;;15.12;71.35;99943.69;4948133;28;119680;-73
2022/11/07 06:11:35;;;;;;;38.28;13.32;;;;;;;15.14;71.37;99925.38;4948274;28;119545;-73
2022/11/07 06:14:01;;;;;;;36.17;12.85;;;;;;;15.16;71.51;99933.91;4943990;28;120027;-73
2022/11/07 06:16:27;;;;;;;41.65;12.90;;;;;;;15.15;71.54;99932.41;4950547;28;120119;-73
2022/11/07 06:18:52;;;;;;;36.17;12.05;;;;;;;15.13;70.90;99923.84;4946901;28;119612;-73
2022/11/07 06:21:18;;;;;;;38.15;11.32;;;;;;;15.13;71.31;99947.94;4947605;28;119907;-73
2022/11/07 06:23:44;;;;;;;33.88;10.73;;;;;;;15.11;71.19;99942.94;4940484;28;120032;-73
2022/11/07 06:26:12;;;;;;;32.60;10.50;;;;;;;15.11;71.19;99947.69;4946992;28;120048;-74
2022/11/07 06:28:38;;;;;;;29.15;9.63;;;;;;;15.10;71.24;99949.72;4945950;28;119935;-73
2022/11/07 06:31:04;;;;;;;28.93;9.47;;;;;;;15.09;71.12;99950.22;4942950;28;120004;-73
2022/11/07 06:33:50;;;;;;;33.73;9.77;;;;;;;15.08;71.08;99954.22;4946408;28;119987;-73
2022/11/07 06:36:16;;;;;;;32.13;9.40;;;;;;;15.08;70.91;99960.50;4947359;28;120083;-74
2022/11/07 06:38:41;;;;;;;28.08;9.23;;;;;;;15.05;70.59;99944.94;4947679;28;121849;-73
2022/11/07 06:41:10;;;;;;;32.40;9.63;;;;;;;15.09;70.81;99955.72;4947378;28;120256;-73
2022/11/07 06:43:37;;;;;;;27.80;8.50;;;;;;;15.11;70.92;99959.50;4943945;28;119755;-73
2022/11/07 06:46:05;;;;;;;28.60;9.02;;;;;;;15.09;70.49;99958.50;4947177;28;120538;-73
2022/11/07 06:48:31;;;;;;;28.25;8.98;;;;;;;15.09;70.25;99964.78;4946284;28;120167;-73
2022/11/07 06:51:02;;;;;;;29.23;8.63;;;;;;;15.12;70.44;99966.53;4943681;28;120906;-74
2022/11/07 06:53:31;;;;;;;28.27;8.95;;;;;;;15.14;70.72;99974.31;4930524;28;120144;-73
2022/11/07 06:55:59;;;;;;;28.00;8.37;;;;;;;15.14;70.57;99986.16;4946649;28;119912;-73
2022/11/07 06:58:32;;;;;;;26.77;8.45;;;;;;;15.13;70.62;99979.09;4942891;28;119819;-73
2022/11/07 07:01:16;;;;;;;29.95;8.80;;;;;;;15.10;70.46;99984.84;4949911;28;119787;-73
2022/11/07 07:03:42;;;;;;;24.33;7.72;;;;;;;15.13;70.42;99990.13;4941418;28;119777;-73
2022/11/07 07:06:11;;;;;;;23.40;7.50;;;;;;;15.08;70.39;99977.06;4944579;28;120530;-73
2022/11/07 07:08:58;;;;;;;25.02;7.88;;;;;;;15.19;69.95;99988.16;4942841;28;119962;-74
2022/11/07 07:11:24;;;;;;;23.23;7.15;;;;;;;15.20;70.25;99994.44;4943212;28;119509;-73
2022/11/07 07:13:49;;;;;;;26.73;7.57;;;;;;;15.23;70.19;99996.22;4942929;28;120324;-73
2022/11/07 07:16:15;;;;;;;25.08;7.10;;;;;;;15.23;69.70;99994.19;4925479;28;120662;-73
2022/11/07 07:18:43;;;;;;;27.60;6.88;;;;;;;15.25;70.09;100001.97;4944395;28;120417;-74
2022/11/07 07:21:11;;;;;;;25.90;6.68;;;;;;;15.27;69.96;99993.94;4943428;28;120301;-73
2022/11/07 07:23:38;;;;;;;25.80;6.47;;;;;;;15.31;69.91;100000.72;4930423;28;120033;-73
2022/11/07 07:26:05;;;;;;;25.20;6.90;;;;;;;15.38;69.72;100012.53;4946455;28;119905;-73
2022/11/07 07:28:31;;;;;;;24.80;7.17;;;;;;;15.44;70.04;100013.34;4943774;28;120462;-73
2022/11/07 07:31:20;;;;;;;24.23;6.90;;;;;;;15.56;70.29;100014.84;4944964;28;120305;-73
2022/11/07 07:33:47;;;;;;;22.85;6.50;;;;;;;15.59;69.70;100016.63;4928124;28;120221;-73
2022/11/07 07:36:14;;;;;;;20.65;6.40;;;;;;;15.69;69.63;100019.94;4944615;28;119533;-73
2022/11/07 07:38:45;;;;;;;25.43;7.13;;;;;;;15.71;68.65;100015.41;4944744;28;120045;-73
2022/11/07 07:41:21;;;;;;;20.67;6.55;;;;;;;15.71;68.88;100009.13;4943443;28;119792;-73
2022/11/07 07:43:47;;;;;;;25.65;6.88;;;;;;;15.70;68.62;100022.19;4944352;28;120368;-74
2022/11/07 07:46:16;;;;;;;30.20;6.82;;;;;;;15.74;69.10;100033.00;4946387;28;121512;-73
2022/11/07 07:48:41;;;;;;;23.90;6.57;;;;;;;15.73;68.55;100018.41;4945099;28;120269;-73
2022/11/07 07:51:07;;;;;;;24.23;7.07;;;;;;;15.71;68.74;100015.41;4942364;28;121079;-73
2022/11/07 07:53:42;;;;;;;28.23;7.13;;;;;;;15.72;68.66;100019.69;4941678;28;119956;-74
2022/11/07 07:56:07;;;;;;;28.27;7.03;;;;;;;15.73;68.91;100031.50;4942565;28;119473;-73
2022/11/07 07:58:33;;;;;;;27.13;7.30;;;;;;;15.73;69.03;100028.72;4937978;28;119603;-73
2022/11/07 08:01:08;;;;;;;24.13;6.90;;;;;;;15.81;68.54;100047.06;4942638;28;119851;-73
2022/11/07 08:03:37;;;;;;;26.98;6.90;;;;;;;15.77;68.28;100026.47;4942447;28;120279;-72
2022/11/07 08:06:04;;;;;;;30.95;7.22;;;;;;;15.80;67.93;100031.75;4923522;28;120775;-73
2022/11/07 08:08:31;;;;;;;27.48;7.38;;;;;;;15.78;68.74;100036.25;4945118;28;120001;-73
2022/11/07 08:11:02;;;;;;;27.67;7.25;;;;;;;15.79;68.75;100035.75;4905846;28;120740;-73
2022/11/07 08:13:28;;;;;;;26.73;7.22;;;;;;;15.85;68.79;100044.06;4941942;28;119907;-73
2022/11/07 08:15:54;;;;;;;26.77;6.97;;;;;;;15.87;68.46;100049.88;4942058;28;119992;-73
2022/11/07 08:18:23;;;;;;;25.03;6.73;;;;;;;15.92;68.60;100049.84;4941306;28;121103;-72
2022/11/07 08:20:50;;;;;;;27.40;7.23;;;;;;;15.92;68.33;100052.63;4943964;28;119756;-73
2022/11/07 08:23:16;;;;;;;30.02;7.15;;;;;;;15.95;68.48;100059.91;4940843;28;120043;-73
2022/11/07 08:25:48;;;;;;;26.17;7.15;;;;;;;15.94;68.07;100060.41;4940761;28;120102;-74
2022/11/07 08:28:15;;;;;;;27.30;7.30;;;;;;;15.95;68.06;100061.94;4946364;28;120061;-73
2022/11/07 08:30:41;;;;;;;25.57;7.40;;;;;;;15.97;68.17;100073.25;4942289;28;119876;-73
2022/11/07 08:33:26;;;;;;;28.95;7.82;;;;;;;15.98;68.64;100074.00;4943824;28;120203;-73
2022/11/07 08:35:56;;;;;;;28.73;8.13;;;;;;;15.94;68.80;100072.25;4942011;28;119907;-73
2022/11/07 08:38:23;;;;;;;29.73;8.65;;;;;;;15.90;68.78;100065.44;4941550;28;120053;-74
2022/11/07 08:40:50;;;;;;;26.07;8.17;;;;;;;15.93;69.14;100069.97;4943209;28;120279;-74
2022/11/07 08:43:17;;;;;;;29.92;8.52;;;;;;;15.96;69.46;100071.72;4940126;28;120024;-73
2022/11/07 08:45:44;;;;;;;27.33;7.82;;;;;;;15.99;69.29;100076.25;4956589;28;120445;-73
2022/11/07 08:48:10;;;;;;;31.45;8.77;;;;;;;16.03;69.03;100078.78;4943275;28;120213;-73
2022/11/07 08:50:39;;;;;;;30.37;7.87;;;;;;;16.03;69.34;100084.31;4943737;28;119922;-74
2022/11/07 08:53:05;;;;;;;25.88;7.43;;;;;;;16.07;69.26;100070.97;4941085;28;120119;-73
2022/11/07 08:55:31;;;;;;;27.13;7.07;;;;;;;16.11;68.95;100069.47;4943169;28;120685;-73
2022/11/07 08:57:58;;;;;;;26.05;7.00;;;;;;;16.21;68.79;100067.22;4940879;28;120020;-74
2022/11/07 09:00:24;;;;;;;23.05;6.40;;;;;;;16.27;67.82;100081.78;4942337;28;119884;-73
2022/11/07 09:02:50;;;;;;;25.07;6.50;;;;;;;16.27;67.32;100082.53;4943590;28;119785;-73
2022/11/07 09:05:15;;;;;;;27.67;6.75;;;;;;;16.25;67.37;100078.78;4943293;28;120181;-73
2022/11/07 09:07:41;;;;;;;23.83;6.47;;;;;;;16.17;67.38;100073.00;4943172;28;119730;-73
2022/11/07 09:10:07;;;;;;;26.00;6.40;;;;;;;16.12;67.42;100070.25;4927694;28;121011;-73
2022/11/07 09:12:33;;;;;;;23.77;6.70;;;;;;;16.12;68.01;100086.84;4949385;28;120735;-73
2022/11/07 09:14:58;;;;;;;24.47;6.80;;;;;;;16.11;67.70;100086.09;4945786;28;120093;-73
2022/11/07 09:17:27;;;;;;;25.80;6.90;;;;;;;16.09;67.78;100087.81;4942262;28;120915;-73
2022/11/07 09:19:53;;;;;;;23.63;7.00;;;;;;;16.12;68.02;100095.13;4943469;28;120077;-73
2022/11/07 09:22:18;;;;;;;23.20;6.90;;;;;;;16.18;68.95;100102.19;4945914;28;120126;-74
2022/11/07 09:24:44;;;;;;;21.63;6.03;;;;;;;16.34;68.07;100100.66;4944986;28;119793;-73
2022/11/07 09:27:10;;;;;;;29.20;7.43;;;;;;;16.42;68.01;100109.97;4945056;28;120605;-74
2022/11/07 09:29:35;;;;;;;28.73;7.43;;;;;;;16.48;67.90;100105.19;4942762;28;119563;-73
2022/11/07 09:32:07;;;;;;;26.60;7.30;;;;;;;16.58;68.42;100100.16;4927272;28;120258;-73
2022/11/07 09:34:33;;;;;;;22.80;6.80;;;;;;;16.70;67.96;100111.97;4933224;28;120225;-72
2022/11/07 09:37:01;;;;;;;23.90;6.57;;;;;;;16.81;67.49;100107.19;4936550;28;120231;-73
2022/11/07 09:39:26;;;;;;;25.38;6.88;;;;;;;16.93;66.86;100107.88;4938154;28;119830;-73
2022/11/07 09:42:15;;;;;;;25.35;6.78;;;;;;;16.96;66.26;100097.81;4937344;28;119923;-73
2022/11/07 09:44:56;;;;;;;27.92;6.88;;;;;;;16.95;65.64;100127.53;4938640;28;120573;-73
2022/11/07 09:47:39;;;;;;;26.30;7.10;;;;;;;16.91;66.01;100121.50;4939646;28;120242;-73
2022/11/07 09:50:26;;;;;;;24.33;6.33;;;;;;;16.92;66.10;100134.09;4937071;28;119846;-73
2022/11/07 09:53:00;;;;;;;23.13;6.70;;;;;;;16.95;66.02;100138.59;4936034;28;121096;-74
2022/11/07 09:55:28;;;;;;;24.42;6.60;;;;;;;16.94;65.96;100142.63;4938051;28;120007;-73
2022/11/07 09:58:27;;;;;;;24.20;6.80;;;;;;;16.90;65.93;100142.16;4933508;28;120140;-74
2022/11/07 10:01:17;;;;;;;21.55;6.47;;;;;;;16.86;65.59;100142.41;4933894;28;119630;-73
2022/11/07 10:03:43;;;;;;;20.25;6.07;;;;;;;16.79;65.55;100151.22;4923436;28;120186;-73
2022/11/07 10:06:14;;;;;;;19.50;6.45;;;;;;;16.77;65.64;100153.75;4936006;28;120564;-73
2022/11/07 10:08:54;;;;;;;26.40;6.45;;;;;;;16.65;65.67;100155.00;4935116;28;120220;-73
2022/11/07 10:11:29;;;;;;;25.45;6.65;;;;;;;16.61;66.53;100170.38;4935374;28;119541;-72
2022/11/07 10:14:10;;;;;;;25.83;7.07;;;;;;;16.47;66.69;100175.63;4934893;28;120116;-74
2022/11/07 10:16:56;;;;;;;26.60;7.87;;;;;;;16.43;67.33;100168.84;4922290;28;119971;-72
2022/11/07 10:19:53;;;;;;;27.13;7.70;;;;;;;16.41;68.05;100169.34;4943275;28;119685;-73
2022/11/07 10:22:49;;;;;;;24.63;7.03;;;;;;;16.46;68.39;100165.81;4943753;28;120778;-73
2022/11/07 10:25:37;;;;;;;27.98;7.30;;;;;;;16.48;68.00;100165.31;4946306;28;120052;-74
2022/11/07 10:28:06;;;;;;;25.70;7.30;;;;;;;16.56;68.17;100169.88;4941931;28;120309;-73
2022/11/07 10:30:32;;;;;;;24.60;6.75;;;;;;;16.60;68.30;100164.06;4943837;28;119498;-73
2022/11/07 10:33:25;;;;;;;22.33;6.30;;;;;;;16.69;67.37;100166.59;4936909;28;120104;-75
2022/11/07 10:36:00;;;;;;;18.98;6.00;;;;;;;16.73;67.27;100161.56;4934659;28;120285;-73
2022/11/07 10:38:29;;;;;;;21.60;5.82;;;;;;;16.76;67.09;100157.78;4936754;28;119976;-73
2022/11/07 10:40:55;;;;;;;20.77;6.30;;;;;;;16.82;67.04;100166.09;4936899;28;119669;-73
2022/11/07 10:43:33;;;;;;;28.40;7.70;;;;;;;16.83;66.55;100175.91;4938342;28;120673;-73
2022/11/07 10:46:02;;;;;;;22.03;5.77;;;;;;;16.78;66.07;100179.41;4939340;28;119729;-73
2022/11/07 10:48:32;;;;;;;24.63;6.10;;;;;;;16.72;66.17;100182.19;4934848;28;119505;-73
2022/11/07 10:51:08;;;;;;;19.67;5.22;;;;;;;16.67;66.20;100179.44;4938009;28;119939;-73
2022/11/07 10:53:43;;;;;;;18.13;5.20;;;;;;;16.66;66.38;100184.22;4937148;28;120608;-73
2022/11/07 10:56:11;;;;;;;19.20;5.53;;;;;;;16.70;66.29;100186.75;4919854;28;120011;-72
2022/11/07 10:58:43;;;;;;;18.63;5.45;;;;;;;16.75;66.52;100191.50;4938169;28;120205;-74
2022/11/07 11:01:10;;;;;;;21.05;5.68;;;;;;;16.78;66.33;100185.72;4924123;28;120251;-73
2022/11/07 11:03:48;;;;;;;18.13;5.53;;;;;;;16.78;65.92;100185.72;4932063;28;119585;-74
2022/11/07 11:06:17;;;;;;;17.88;5.60;;;;;;;16.74;65.78;100188.00;4942140;28;120151;-74
2022/11/07 11:09:17;;;;;;;19.15;5.72;;;;;;;16.69;65.97;100182.47;4940869;28;119917;-74
2022/11/07 11:11:49;;;;;;;20.15;5.60;;;;;;;16.70;65.95;100192.28;4943968;28;120023;-73
2022/11/07 11:14:34;;;;;;;16.48;5.63;;;;;;;16.68;65.87;100181.72;4940736;28;119954;-73
2022/11/07 11:17:00;;;;;;;17.20;5.30;;;;;;;16.66;65.99;100189.75;4940837;28;119945;-73
2022/11/07 11:19:38;;;;;;;17.13;5.20;;;;;;;16.62;66.06;100191.25;4943361;28;120412;-73
2022/11/07 11:22:17;;;;;;;18.65;5.60;;;;;;;16.57;66.19;100192.78;4943711;28;119990;-73
2022/11/07 11:24:42;;;;;;;22.80;6.20;;;;;;;16.52;66.23;100176.88;4943137;28;119875;-73
2022/11/07 11:27:16;;;;;;;17.95;5.93;;;;;;;16.54;66.23;100188.97;4944499;28;119870;-73
2022/11/07 11:30:10;;;;;;;18.00;5.93;;;;;;;16.56;66.51;100183.72;4947100;28;120247;-73